createdAt,value
2018-01-15T00:00:52.251Z,24.95
2018-01-15T00:03:20.881Z,24.58
2018-01-15T00:05:49.304Z,23.25
2018-01-15T00:08:17.721Z,25.58
2018-01-15T00:10:46.029Z,24.10
2018-01-15T00:13:14.349Z,23.77
2018-01-15T00:15:42.714Z,27.35
2018-01-15T00:18:11.067Z,25.20
2018-01-15T00:20:39.388Z,22.77
2018-01-15T00:23:07.693Z,24.00
2018-01-15T00:25:36.003Z,23.87
2018-01-15T00:28:04.320Z,27.42
2018-01-15T00:30:32.671Z,25.27
2018-01-15T00:33:01.152Z,27.70
2018-01-15T00:35:29.461Z,21.70
2018-01-15T00:37:57.752Z,25.67
2018-01-15T00:40:26.071Z,23.58
2018-01-15T00:42:54.350Z,28.80
2018-01-15T00:45:22.880Z,22.08
2018-01-15T00:47:51.195Z,24.67
2018-01-15T00:50:20.264Z,24.75
2018-01-15T00:52:48.859Z,21.52
2018-01-15T00:55:17.182Z,25.20
2018-01-15T00:57:45.471Z,23.70
2018-01-15T01:00:14.015Z,22.60
2018-01-15T01:02:42.339Z,23.30
2018-01-15T01:05:10.633Z,22.58
2018-01-15T01:07:38.946Z,22.02
2018-01-15T01:10:07.278Z,25.62
2018-01-15T01:12:35.576Z,23.05
2018-01-15T01:15:03.869Z,23.58
2018-01-15T01:17:32.163Z,23.90
2018-01-15T01:20:00.460Z,27.65
2018-01-15T01:22:28.799Z,27.05
2018-01-15T01:24:57.121Z,23.75
2018-01-15T01:27:25.412Z,23.92
2018-01-15T01:29:53.827Z,24.25
2018-01-15T01:32:22.154Z,27.33
2018-01-15T01:34:50.442Z,23.20
2018-01-15T01:37:18.744Z,23.42
2018-01-15T01:39:47.056Z,25.27
2018-01-15T01:42:15.352Z,23.87
2018-01-15T01:44:43.701Z,24.12
2018-01-15T01:47:12.022Z,28.15
2018-01-15T01:49:40.309Z,27.15
2018-01-15T01:52:08.606Z,27.92
2018-01-15T01:54:36.984Z,24.75
2018-01-15T01:57:05.264Z,20.88
2018-01-15T01:59:33.572Z,23.05
2018-01-15T02:02:01.937Z,22.17
2018-01-15T02:04:30.350Z,24.80
2018-01-15T02:06:58.638Z,22.42
2018-01-15T02:09:27.237Z,23.42
2018-01-15T02:11:55.539Z,24.60
2018-01-15T02:14:23.812Z,23.90
2018-01-15T02:16:52.148Z,26.27
2018-01-15T02:19:20.469Z,24.55
2018-01-15T02:21:48.843Z,22.87
2018-01-15T02:24:17.135Z,25.23
2018-01-15T02:26:45.487Z,21.95
2018-01-15T02:29:13.805Z,27.35
2018-01-15T02:31:42.211Z,27.13
2018-01-15T02:34:10.555Z,23.42
2018-01-15T02:36:38.841Z,26.45
2018-01-15T02:39:07.156Z,29.60
2018-01-15T02:41:35.483Z,24.37
2018-01-15T02:44:03.903Z,24.73
2018-01-15T02:46:32.197Z,26.58
2018-01-15T02:49:00.512Z,26.52
2018-01-15T02:51:28.804Z,27.80
2018-01-15T02:53:57.132Z,29.95
2018-01-15T02:56:25.453Z,26.65
2018-01-15T02:58:53.745Z,23.75
2018-01-15T03:01:22.049Z,22.83
2018-01-15T03:03:50.364Z,22.10
2018-01-15T03:06:18.663Z,23.40
2018-01-15T03:08:46.977Z,28.25
2018-01-15T03:11:15.317Z,27.15
2018-01-15T03:13:43.613Z,25.67
2018-01-15T03:16:11.952Z,24.65
2018-01-15T03:18:40.243Z,23.35
2018-01-15T03:21:08.580Z,23.23
2018-01-15T03:23:36.872Z,25.25
2018-01-15T03:26:05.185Z,25.15
2018-01-15T03:28:33.521Z,22.77
2018-01-15T03:31:02.037Z,24.40
2018-01-15T03:33:30.362Z,25.50
2018-01-15T03:35:58.674Z,23.98
2018-01-15T03:38:26.970Z,23.05
2018-01-15T03:40:55.289Z,28.45
2018-01-15T03:43:23.579Z,26.67
2018-01-15T03:45:51.892Z,29.60
2018-01-15T03:48:20.223Z,27.30
2018-01-15T03:50:48.521Z,26.60
2018-01-15T03:53:16.954Z,23.90
2018-01-15T03:55:45.292Z,28.95
2018-01-15T03:58:13.657Z,25.52
2018-01-15T04:00:42.096Z,24.75
2018-01-15T04:03:10.497Z,25.17
2018-01-15T04:05:38.808Z,27.58
2018-01-15T04:08:07.137Z,27.05
2018-01-15T04:10:35.461Z,29.73
2018-01-15T04:13:03.758Z,26.52
2018-01-15T04:15:32.082Z,28.90
2018-01-15T04:18:00.400Z,25.98
2018-01-15T04:20:28.710Z,27.23
2018-01-15T04:22:57.033Z,28.12
2018-01-15T04:25:25.326Z,30.90
2018-01-15T04:27:53.613Z,33.33
2018-01-15T04:30:22.012Z,29.42
2018-01-15T04:32:50.308Z,29.52
2018-01-15T04:35:19.001Z,28.70
2018-01-15T04:37:47.316Z,25.62
2018-01-15T04:40:15.621Z,27.42
2018-01-15T04:42:43.949Z,25.55
2018-01-15T04:45:12.228Z,28.77
2018-01-15T04:47:40.593Z,28.00
2018-01-15T04:50:08.903Z,28.10
2018-01-15T04:52:37.214Z,24.27
2018-01-15T04:55:05.557Z,27.40
2018-01-15T04:57:34.138Z,23.73
2018-01-15T05:00:02.644Z,25.27
2018-01-15T05:02:30.957Z,26.42
2018-01-15T05:04:59.348Z,23.75
2018-01-15T05:07:27.669Z,20.27
2018-01-15T05:09:56.313Z,22.52
2018-01-15T05:12:24.596Z,23.77
2018-01-15T05:14:52.915Z,22.35
2018-01-15T05:17:21.205Z,21.90
2018-01-15T05:19:51.346Z,23.62
2018-01-15T05:22:19.667Z,26.92
2018-01-15T05:24:48.016Z,28.25
2018-01-15T05:27:16.357Z,24.48
2018-01-15T05:29:44.705Z,27.00
2018-01-15T05:32:13.044Z,24.08
2018-01-15T05:34:41.371Z,23.38
2018-01-15T05:37:09.696Z,25.58
2018-01-15T05:39:38.013Z,25.10
2018-01-15T05:42:06.333Z,22.87
2018-01-15T05:44:34.670Z,27.37
2018-01-15T05:47:03.055Z,22.73
2018-01-15T05:49:31.395Z,24.10
2018-01-15T05:51:59.738Z,21.65
2018-01-15T05:54:28.070Z,19.92
2018-01-15T05:56:56.494Z,22.75
2018-01-15T05:59:24.826Z,33.40
2018-01-15T06:01:53.135Z,23.60
2018-01-15T06:04:21.453Z,24.65
2018-01-15T06:06:49.762Z,23.25
2018-01-15T06:09:18.816Z,23.25
2018-01-15T06:11:47.171Z,25.73
2018-01-15T06:14:15.502Z,22.87
2018-01-15T06:16:43.799Z,20.52
2018-01-15T06:19:12.126Z,22.62
2018-01-15T06:21:40.434Z,22.70
2018-01-15T06:24:08.750Z,22.27
2018-01-15T06:26:37.068Z,25.45
2018-01-15T06:29:05.352Z,22.50
2018-01-15T06:31:33.687Z,24.12
2018-01-15T06:34:01.984Z,21.50
2018-01-15T06:36:30.639Z,22.48
2018-01-15T06:38:58.952Z,29.98
2018-01-15T06:41:28.211Z,23.77
2018-01-15T06:43:56.499Z,28.25
2018-01-15T06:46:24.800Z,31.87
2018-01-15T06:48:53.098Z,28.30
2018-01-15T06:51:21.413Z,24.55
2018-01-15T06:53:49.726Z,29.20
2018-01-15T06:56:18.516Z,25.00
2018-01-15T06:58:47.307Z,24.52
2018-01-15T07:01:15.618Z,35.10
2018-01-15T07:03:43.912Z,23.05
2018-01-15T07:06:12.236Z,24.83
2018-01-15T07:08:40.524Z,23.92
2018-01-15T07:11:08.838Z,28.20
2018-01-15T07:13:37.142Z,21.05
2018-01-15T07:16:05.448Z,25.73
2018-01-15T07:18:33.747Z,26.00
2018-01-15T07:21:02.038Z,26.85
2018-01-15T07:23:30.366Z,30.33
2018-01-15T07:25:58.673Z,24.33
2018-01-15T07:28:27.032Z,24.20
2018-01-15T07:30:55.336Z,23.08
2018-01-15T07:33:23.849Z,21.62
2018-01-15T07:35:52.168Z,20.62
2018-01-15T07:38:20.454Z,20.55
2018-01-15T07:40:49.611Z,23.45
2018-01-15T07:43:17.913Z,24.02
2018-01-15T07:45:46.225Z,22.50
2018-01-15T07:48:14.544Z,25.48
2018-01-15T07:50:42.842Z,25.90
2018-01-15T07:53:11.235Z,19.30
2018-01-15T07:55:39.555Z,18.15
2018-01-15T07:58:07.876Z,21.35
2018-01-15T08:00:36.218Z,21.08
2018-01-15T08:03:04.505Z,20.55
2018-01-15T08:05:32.797Z,18.92
2018-01-15T08:08:01.099Z,18.75
2018-01-15T08:10:29.399Z,21.60
2018-01-15T08:12:58.132Z,20.70
2018-01-15T08:15:27.412Z,19.23
2018-01-15T08:17:55.695Z,22.58
2018-01-15T08:20:24.013Z,24.67
2018-01-15T08:22:52.300Z,19.08
2018-01-15T08:25:20.603Z,22.45
2018-01-15T08:27:48.922Z,21.48
2018-01-15T08:30:17.268Z,24.33
2018-01-15T08:32:45.556Z,21.25
2018-01-15T08:35:13.905Z,25.00
2018-01-15T08:37:42.188Z,20.65
2018-01-15T08:40:10.497Z,22.30
2018-01-15T08:42:38.823Z,19.35
2018-01-15T08:45:07.112Z,17.37
2018-01-15T08:47:35.425Z,23.27
2018-01-15T08:50:03.736Z,20.17
2018-01-15T08:52:32.032Z,22.65
2018-01-15T08:55:00.380Z,22.52
2018-01-15T08:57:28.719Z,23.60
2018-01-15T08:59:57.007Z,25.88
2018-01-15T09:02:25.291Z,20.98
2018-01-15T09:04:53.595Z,21.27
2018-01-15T09:07:21.929Z,20.60
2018-01-15T09:09:50.229Z,24.92
2018-01-15T09:12:18.553Z,25.05
2018-01-15T09:14:46.878Z,21.87
2018-01-15T09:17:16.094Z,25.45
2018-01-15T09:19:44.443Z,21.75
2018-01-15T09:22:12.723Z,19.85
2018-01-15T09:24:41.069Z,23.35
2018-01-15T09:27:09.394Z,20.33
2018-01-15T09:29:37.753Z,23.05
2018-01-15T09:32:06.105Z,17.70
2018-01-15T09:34:34.395Z,22.33
2018-01-15T09:37:02.712Z,21.87
2018-01-15T09:39:31.077Z,21.98
2018-01-15T09:41:59.356Z,19.90
2018-01-15T09:44:27.627Z,20.17
2018-01-15T09:46:55.936Z,22.17
2018-01-15T09:49:24.224Z,22.65
2018-01-15T09:51:52.530Z,19.25
2018-01-15T09:54:21.196Z,21.00
2018-01-15T09:56:49.477Z,24.67
2018-01-15T09:59:17.841Z,20.62
2018-01-15T10:01:46.160Z,25.45
2018-01-15T10:04:14.512Z,27.85
2018-01-15T10:06:42.889Z,22.90
2018-01-15T10:09:11.199Z,24.95
2018-01-15T10:11:39.524Z,25.35
2018-01-15T10:14:07.824Z,26.48
2018-01-15T10:16:36.133Z,24.98
2018-01-15T10:19:04.445Z,23.50
2018-01-15T10:21:32.749Z,23.77
2018-01-15T10:24:01.080Z,24.55
2018-01-15T10:26:29.392Z,23.58
2018-01-15T10:28:57.731Z,24.67
2018-01-15T10:31:26.157Z,26.30
2018-01-15T10:33:54.491Z,23.77
2018-01-15T10:36:22.784Z,24.15
2018-01-15T10:38:51.095Z,26.42
2018-01-15T10:41:19.400Z,25.50
2018-01-15T10:43:47.791Z,21.00
2018-01-15T10:46:15.966Z,30.37
2018-01-15T10:48:44.156Z,23.65
2018-01-15T10:51:12.354Z,31.25
2018-01-15T10:53:40.530Z,30.58
2018-01-15T10:56:08.718Z,27.20
2018-01-15T10:58:36.954Z,26.55
2018-01-15T11:01:11.424Z,30.52
2018-01-15T11:03:39.666Z,25.45
2018-01-15T11:06:07.862Z,24.05
2018-01-15T11:08:36.033Z,28.25
2018-01-15T11:11:04.235Z,25.48
2018-01-15T11:13:32.418Z,24.77
2018-01-15T11:16:00.625Z,27.70
2018-01-15T11:18:28.813Z,28.10
2018-01-15T11:20:56.998Z,26.65
2018-01-15T11:23:25.269Z,28.38
2018-01-15T11:25:53.447Z,26.58
2018-01-15T11:28:21.616Z,27.17
2018-01-15T11:30:49.854Z,24.20
2018-01-15T11:33:18.045Z,29.17
2018-01-15T11:35:46.238Z,28.67
2018-01-15T11:38:14.447Z,29.95
2018-01-15T11:40:42.673Z,30.23
2018-01-15T11:43:10.954Z,27.98
2018-01-15T11:45:39.143Z,28.45
2018-01-15T11:48:07.353Z,27.70
2018-01-15T11:50:35.558Z,25.45
2018-01-15T11:53:03.758Z,31.15
2018-01-15T11:55:31.961Z,26.50
2018-01-15T11:58:00.151Z,27.98
2018-01-15T12:00:28.375Z,27.23
2018-01-15T12:02:56.583Z,28.40
2018-01-15T12:05:24.763Z,25.58
2018-01-15T12:07:52.966Z,31.48
2018-01-15T12:10:21.149Z,26.35
2018-01-15T12:12:49.525Z,28.30
2018-01-15T12:15:17.713Z,26.65
2018-01-15T12:17:45.902Z,25.00
2018-01-15T12:20:14.914Z,27.13
2018-01-15T12:22:43.112Z,27.00
2018-01-15T12:25:11.317Z,29.80
2018-01-15T12:27:39.648Z,26.83
2018-01-15T12:30:07.880Z,27.92
2018-01-15T12:32:36.063Z,32.80
2018-01-15T12:35:04.267Z,26.27
2018-01-15T12:37:32.774Z,32.90
2018-01-15T12:40:00.987Z,30.95
2018-01-15T12:42:29.175Z,33.95
2018-01-15T12:44:57.938Z,26.67
2018-01-15T12:47:26.155Z,29.25
2018-01-15T12:49:54.338Z,30.80
2018-01-15T12:52:22.553Z,28.00
2018-01-15T12:54:50.742Z,27.33
2018-01-15T12:57:19.067Z,25.30
2018-01-15T12:59:47.484Z,26.60
2018-01-15T13:02:15.801Z,28.67
2018-01-15T13:04:44.103Z,25.77
2018-01-15T13:07:24.632Z,28.45
2018-01-15T13:09:53.017Z,31.62
2018-01-15T13:12:21.330Z,30.85
2018-01-15T13:14:49.600Z,29.02
2018-01-15T13:17:17.923Z,27.37
2018-01-15T13:19:46.323Z,23.83
2018-01-15T13:22:14.640Z,32.67
2018-01-15T13:24:42.944Z,28.48
2018-01-15T13:27:11.234Z,30.48
2018-01-15T13:29:39.548Z,29.75
2018-01-15T13:32:07.868Z,25.15
2018-01-15T13:34:36.184Z,29.23
2018-01-15T13:37:04.511Z,28.87
2018-01-15T13:39:32.840Z,26.73
2018-01-15T13:42:01.149Z,31.75
2018-01-15T13:44:29.456Z,31.95
2018-01-15T13:46:57.772Z,33.45
2018-01-15T13:49:26.093Z,33.58
2018-01-15T13:51:54.397Z,28.38
2018-01-15T13:54:22.697Z,30.45
2018-01-15T13:56:51.012Z,29.05
2018-01-15T13:59:19.300Z,30.52
2018-01-15T14:01:47.599Z,30.75
2018-01-15T14:04:15.967Z,27.80
2018-01-15T14:06:44.341Z,25.95
2018-01-15T14:09:12.622Z,32.75
2018-01-15T14:11:40.992Z,26.50
2018-01-15T14:14:09.288Z,26.48
2018-01-15T14:16:37.604Z,24.60
2018-01-15T14:19:05.909Z,29.40
2018-01-15T14:21:34.216Z,25.33
2018-01-15T14:24:02.516Z,29.08
2018-01-15T14:26:30.805Z,26.98
2018-01-15T14:28:59.128Z,28.38
2018-01-15T14:31:27.404Z,26.48
2018-01-15T14:33:55.713Z,23.42
2018-01-15T14:36:24.054Z,25.73
2018-01-15T14:38:52.364Z,26.62
2018-01-15T14:41:20.673Z,29.35
2018-01-15T14:43:48.997Z,29.58
2018-01-15T14:46:17.296Z,26.95
2018-01-15T14:48:45.631Z,32.40
2018-01-15T14:51:13.967Z,32.55
2018-01-15T14:53:42.284Z,32.15
2018-01-15T14:56:10.573Z,30.95
2018-01-15T14:58:38.944Z,27.10
2018-01-15T15:01:07.258Z,32.67
2018-01-15T15:03:35.566Z,28.87
2018-01-15T15:06:03.875Z,35.15
2018-01-15T15:08:32.203Z,34.35
2018-01-15T15:11:00.512Z,28.70
2018-01-15T15:13:28.829Z,30.60
2018-01-15T15:15:57.202Z,26.00
2018-01-15T15:18:25.492Z,29.98
2018-01-15T15:20:53.814Z,30.37
2018-01-15T15:23:22.144Z,31.17
2018-01-15T15:25:50.436Z,30.30
2018-01-15T15:28:18.752Z,33.55
2018-01-15T15:30:47.056Z,32.65
2018-01-15T15:33:15.384Z,33.58
2018-01-15T15:35:43.684Z,34.42
2018-01-15T15:38:11.991Z,34.65
2018-01-15T15:40:40.292Z,32.30
2018-01-15T15:43:08.913Z,31.48
2018-01-15T15:45:37.241Z,34.47
2018-01-15T15:48:05.560Z,36.55
2018-01-15T15:50:33.887Z,36.17
2018-01-15T15:53:02.191Z,31.10
2018-01-15T15:55:30.477Z,30.83
2018-01-15T15:57:58.786Z,37.22
2018-01-15T16:00:27.077Z,35.17
2018-01-15T16:02:55.389Z,37.28
2018-01-15T16:05:23.712Z,40.28
2018-01-15T16:07:52.008Z,36.60
2018-01-15T16:10:20.387Z,34.47
2018-01-15T16:12:48.705Z,37.78
2018-01-15T16:15:16.996Z,37.22
2018-01-15T16:17:45.292Z,39.38
2018-01-15T16:20:13.616Z,39.25
2018-01-15T16:22:54.037Z,40.72
2018-01-15T16:25:22.352Z,38.85
2018-01-15T16:27:50.802Z,39.60
2018-01-15T16:30:19.116Z,33.65
2018-01-15T16:32:47.446Z,37.08
2018-01-15T16:35:15.763Z,45.05
2018-01-15T16:37:44.392Z,36.33
2018-01-15T16:40:12.720Z,35.25
2018-01-15T16:42:41.011Z,38.25
2018-01-15T16:45:09.354Z,39.75
2018-01-15T16:47:37.709Z,37.80
2018-01-15T16:50:11.981Z,37.83
2018-01-15T16:52:40.320Z,38.63
2018-01-15T16:55:08.619Z,35.10
2018-01-15T16:57:36.911Z,39.35
2018-01-15T17:00:05.232Z,37.88
2018-01-15T17:02:34.534Z,38.30
2018-01-15T17:05:02.863Z,38.08
2018-01-15T17:07:31.156Z,41.55
2018-01-15T17:09:59.781Z,38.60
2018-01-15T17:12:28.096Z,37.13
2018-01-15T17:14:56.437Z,37.95
2018-01-15T17:17:24.727Z,39.00
2018-01-15T17:19:53.063Z,38.70
2018-01-15T17:22:21.376Z,35.40
2018-01-15T17:24:49.732Z,40.22
2018-01-15T17:27:18.034Z,43.35
2018-01-15T17:29:46.354Z,43.40
2018-01-15T17:32:14.774Z,41.95
2018-01-15T17:34:43.081Z,42.17
2018-01-15T17:37:12.505Z,36.80
2018-01-15T17:39:40.821Z,43.47
2018-01-15T17:42:09.214Z,42.45
2018-01-15T17:44:37.520Z,41.35
2018-01-15T17:47:05.815Z,42.05
2018-01-15T17:49:35.113Z,44.88
2018-01-15T17:52:03.501Z,41.88
2018-01-15T17:54:31.915Z,41.67
2018-01-15T17:57:00.224Z,40.55
2018-01-15T17:59:28.619Z,36.95
2018-01-15T18:01:56.949Z,42.75
2018-01-15T18:04:25.237Z,45.20
2018-01-15T18:06:54.149Z,39.20
2018-01-15T18:09:22.449Z,40.05
2018-01-15T18:11:50.753Z,43.95
2018-01-15T18:14:20.017Z,40.50
2018-01-15T18:16:48.318Z,40.75
2018-01-15T18:19:16.612Z,38.83
2018-01-15T18:21:44.924Z,45.50
2018-01-15T18:24:13.212Z,43.30
2018-01-15T18:26:41.501Z,42.55
2018-01-15T18:29:10.442Z,46.80
2018-01-15T18:31:38.759Z,39.17
2018-01-15T18:34:07.051Z,43.08
2018-01-15T18:36:35.507Z,45.15
2018-01-15T18:39:03.895Z,110.05
2018-01-15T18:41:32.176Z,45.90
2018-01-15T18:44:00.489Z,73.93
2018-01-15T18:46:28.840Z,49.67
2018-01-15T18:48:57.197Z,48.83
2018-01-15T18:51:25.522Z,47.35
2018-01-15T18:53:53.816Z,48.58
2018-01-15T18:56:22.136Z,42.58
2018-01-15T18:58:50.456Z,52.95
2018-01-15T19:01:18.847Z,47.20
2018-01-15T19:03:47.124Z,47.38
2018-01-15T19:06:16.444Z,66.32
2018-01-15T19:08:44.825Z,50.15
2018-01-15T19:11:13.170Z,52.60
2018-01-15T19:13:41.464Z,48.65
2018-01-15T19:16:09.776Z,52.47
2018-01-15T19:18:38.092Z,51.00
2018-01-15T19:21:06.420Z,49.22
2018-01-15T19:23:34.740Z,54.70
2018-01-15T19:26:03.395Z,50.88
2018-01-15T19:28:31.851Z,50.67
2018-01-15T19:31:00.300Z,48.60
2018-01-15T19:33:28.644Z,46.92
2018-01-15T19:38:58.449Z,47.53
2018-01-15T19:41:32.814Z,51.35
2018-01-15T19:44:07.193Z,51.47
2018-01-15T19:46:41.552Z,51.97
2018-01-15T19:49:15.868Z,53.78
2018-01-15T19:51:50.287Z,53.72
2018-01-15T19:54:24.706Z,49.80
2018-01-15T19:56:59.102Z,57.95
2018-01-15T19:59:33.567Z,53.53
2018-01-15T20:02:08.003Z,51.65
2018-01-15T20:04:45.546Z,55.00
2018-01-15T20:07:20.029Z,56.28
2018-01-15T20:09:54.306Z,54.92
2018-01-15T20:12:22.744Z,57.42
2018-01-15T20:14:51.113Z,64.12
2018-01-15T20:17:19.441Z,54.88
2018-01-15T20:19:47.777Z,57.75
2018-01-15T20:22:16.109Z,53.15
2018-01-15T20:24:44.483Z,49.75
2018-01-15T20:27:12.815Z,51.50
2018-01-15T20:29:41.416Z,48.60
2018-01-15T20:32:09.798Z,51.37
2018-01-15T20:34:38.121Z,42.25
2018-01-15T20:37:06.436Z,47.97
2018-01-15T20:39:34.773Z,48.55
2018-01-15T20:42:03.124Z,44.50
2018-01-15T20:44:31.517Z,46.28
2018-01-15T20:46:59.831Z,39.17
2018-01-15T20:49:28.156Z,45.08
2018-01-15T20:51:56.502Z,42.45
2018-01-15T20:54:24.820Z,36.88
2018-01-15T20:56:53.135Z,40.97
2018-01-15T20:59:21.475Z,42.08
2018-01-15T21:01:49.769Z,41.85
2018-01-15T21:04:18.084Z,37.30
2018-01-15T21:06:46.500Z,35.22
2018-01-15T21:09:14.789Z,38.63
2018-01-15T21:11:43.321Z,38.97
2018-01-15T21:14:11.648Z,35.30
2018-01-15T21:16:40.171Z,42.67
2018-01-15T21:19:08.455Z,37.33
2018-01-15T21:21:36.784Z,37.28
2018-01-15T21:24:05.096Z,33.83
2018-01-15T21:26:33.432Z,40.17
2018-01-15T21:29:01.767Z,34.28
2018-01-15T21:31:30.102Z,34.28
2018-01-15T21:33:58.410Z,32.13
2018-01-15T21:36:26.728Z,38.67
2018-01-15T21:38:55.058Z,35.40
2018-01-15T21:41:23.384Z,38.22
2018-01-15T21:43:52.707Z,36.33
2018-01-15T21:46:21.015Z,35.67
2018-01-15T21:48:50.318Z,39.38
2018-01-15T21:51:18.696Z,36.42
2018-01-15T21:53:46.996Z,43.70
2018-01-15T21:56:15.318Z,39.45
2018-01-15T21:58:43.657Z,38.95
2018-01-15T22:01:11.972Z,39.13
2018-01-15T22:03:40.295Z,44.78
2018-01-15T22:06:08.609Z,39.65
2018-01-15T22:08:36.962Z,41.53
2018-01-15T22:11:05.315Z,41.28
2018-01-15T22:13:33.641Z,40.15
2018-01-15T22:16:01.997Z,44.70
2018-01-15T22:18:30.390Z,50.53
2018-01-15T22:20:58.685Z,45.90
2018-01-15T22:23:27.032Z,45.17
2018-01-15T22:25:55.445Z,47.20
2018-01-15T22:28:23.760Z,45.78
2018-01-15T22:30:52.075Z,50.70
2018-01-15T22:33:20.395Z,45.58
2018-01-15T22:35:48.768Z,46.05
2018-01-15T22:38:17.128Z,47.53
2018-01-15T22:40:45.429Z,42.78
2018-01-15T22:43:13.744Z,45.80
2018-01-15T22:45:42.217Z,56.00
2018-01-15T22:48:10.512Z,45.12
2018-01-15T22:50:38.824Z,51.25
2018-01-15T22:53:07.186Z,52.08
2018-01-15T22:55:35.529Z,55.00
2018-01-15T22:58:04.520Z,50.88
2018-01-15T23:00:32.879Z,55.40
2018-01-15T23:03:01.197Z,57.53
2018-01-15T23:05:29.503Z,51.28
2018-01-15T23:07:57.912Z,51.50
2018-01-15T23:10:26.285Z,50.28
2018-01-15T23:12:54.584Z,61.20
2018-01-15T23:15:22.881Z,56.37
2018-01-15T23:17:51.224Z,61.58
2018-01-15T23:20:19.542Z,60.20
2018-01-15T23:22:47.845Z,58.85
2018-01-15T23:25:16.160Z,55.45
2018-01-15T23:27:44.505Z,63.00
2018-01-15T23:30:12.835Z,62.05
2018-01-15T23:32:41.162Z,68.03
2018-01-15T23:35:09.708Z,63.70
2018-01-15T23:37:38.033Z,66.87
2018-01-15T23:40:06.359Z,68.32
2018-01-15T23:42:34.664Z,74.35
2018-01-15T23:45:03.020Z,62.38
2018-01-15T23:47:31.332Z,70.65
2018-01-15T23:49:59.640Z,70.50
2018-01-15T23:52:27.955Z,77.55
2018-01-15T23:54:56.251Z,81.50
2018-01-15T23:57:24.569Z,71.43
2018-01-15T23:59:52.873Z,67.30
